Time;durP1;ratioP1;P1;durP2;ratioP2;P2;SDS_P1;SDS_P2;PMS_P1;PMS_P2;Temp;Humidity;BMP_temperature;BMP_pressure;BME280_temperature;BME280_humidity;BME280_pressure;Samples;Min_cycle;Max_cycle;Signal;HPM_P1;HPM_P2
2023/11/02 00:01:22;;;;;;;;;;;14.00;99.90;;;;;;4922979;29;20018;-76
2023/11/02 00:03:48;;;;;;;;;;;14.20;99.90;;;;;;4939060;29;20338;-75
2023/11/02 00:06:32;;;;;;;;;;;14.20;99.90;;;;;;4941949;29;19965;-75
2023/11/02 00:09:04;;;;;;;;;;;14.30;99.90;;;;;;4938452;29;19907;-75
2023/11/02 00:11:56;;;;;;;;;;;14.40;99.90;;;;;;4924090;29;19909;-75
2023/11/02 00:14:23;;;;;;;;;;;14.40;99.90;;;;;;4879083;29;20332;-75
2023/11/02 00:16:49;;;;;;;;;;;14.20;99.90;;;;;;4883979;29;19907;-75
2023/11/02 00:19:17;;;;;;;;;;;14.10;99.90;;;;;;4919344;29;20011;-75
2023/11/02 00:21:43;;;;;;;;;;;14.00;99.90;;;;;;4936835;29;19938;-74
2023/11/02 00:24:09;;;;;;;;;;;13.90;99.90;;;;;;4937940;29;19910;-75
2023/11/02 00:26:34;;;;;;;;;;;13.80;99.90;;;;;;4938248;29;20381;-75
2023/11/02 00:29:00;;;;;;;;;;;13.70;99.90;;;;;;4939864;29;19930;-76
2023/11/02 00:31:25;;;;;;;;;;;13.60;99.90;;;;;;4937411;29;19907;-76
2023/11/02 00:33:51;;;;;;;;;;;13.60;99.90;;;;;;4902371;29;20346;-76
2023/11/02 00:36:16;;;;;;;;;;;13.70;99.90;;;;;;4926258;29;19938;-75
2023/11/02 00:38:43;;;;;;;;;;;13.70;99.90;;;;;;4919457;29;19907;-75
2023/11/02 00:41:09;;;;;;;;;;;13.90;99.90;;;;;;4916603;29;19913;-76
2023/11/02 00:43:34;;;;;;;;;;;14.00;99.90;;;;;;4920009;29;19973;-76
2023/11/02 00:46:00;;;;;;;;;;;14.10;99.90;;;;;;4918977;29;19914;-77
2023/11/02 00:48:30;;;;;;;;;;;14.20;99.90;;;;;;4918908;29;20282;-76
2023/11/02 00:51:01;;;;;;;;;;;14.30;99.90;;;;;;4929493;29;19919;-78
2023/11/02 00:53:27;;;;;;;;;;;14.50;99.90;;;;;;4901879;29;19911;-77
2023/11/02 00:55:52;;;;;;;;;;;14.60;99.90;;;;;;4898759;29;19915;-75
2023/11/02 00:58:22;;;;;;;;;;;14.70;99.90;;;;;;4888308;29;19916;-75
2023/11/02 01:00:53;;;;;;;;;;;14.80;99.90;;;;;;4910279;29;19938;-77
2023/11/02 01:03:19;;;;;;;;;;;14.90;99.90;;;;;;4919136;29;20363;-77
2023/11/02 01:05:45;;;;;;;;;;;14.90;99.90;;;;;;4920225;29;19919;-75
2023/11/02 01:08:12;;;;;;;;;;;14.90;99.90;;;;;;4932815;29;20366;-75
2023/11/02 01:10:38;;;;;;;;;;;14.80;99.90;;;;;;4913548;29;19993;-75
2023/11/02 01:13:10;;;;;;;;;;;14.90;99.90;;;;;;4917475;29;19914;-76
2023/11/02 01:15:42;;;;;;;;;;;14.90;99.90;;;;;;4918573;29;19914;-75
2023/11/02 01:18:09;;;;;;;;;;;14.90;99.90;;;;;;4923521;29;20375;-75
2023/11/02 01:20:45;;;;;;;;;;;15.00;99.90;;;;;;4926220;29;19907;-75
2023/11/02 01:23:15;;;;;;;;;;;15.00;99.90;;;;;;4882548;29;19911;-75
2023/11/02 01:25:41;;;;;;;;;;;15.00;99.90;;;;;;4908494;29;19918;-75
2023/11/02 01:28:07;;;;;;;;;;;15.00;99.90;;;;;;4900407;29;20268;-77
2023/11/02 01:30:35;;;;;;;;;;;15.10;99.90;;;;;;4918031;29;19926;-75
2023/11/02 01:33:04;;;;;;;;;;;15.20;99.90;;;;;;4899376;29;19959;-78
2023/11/02 01:35:30;;;;;;;;;;;15.30;99.90;;;;;;4897127;29;19915;-76
2023/11/02 01:37:55;;;;;;;;;;;15.40;99.90;;;;;;4915381;29;19907;-75
2023/11/02 01:40:32;;;;;;;;;;;15.40;99.90;;;;;;4906592;29;19961;-75
2023/11/02 01:42:58;;;;;;;;;;;15.50;99.90;;;;;;4899480;29;20351;-75
2023/11/02 01:45:25;;;;;;;;;;;15.60;99.90;;;;;;4898622;29;20303;-76
2023/11/02 01:48:05;;;;;;;;;;;15.70;99.90;;;;;;4922561;29;19911;-77
2023/11/02 01:50:32;;;;;;;;;;;15.50;99.90;;;;;;4900855;29;20018;-75
2023/11/02 01:53:21;;;;;;;;;;;15.40;99.90;;;;;;4901799;29;19990;-77
2023/11/02 01:56:04;;;;;;;;;;;15.50;99.90;;;;;;4885817;29;19919;-75
2023/11/02 01:58:44;;;;;;;;;;;15.70;99.90;;;;;;4898815;29;19911;-77
2023/11/02 02:01:16;;;;;;;;;;;15.70;99.90;;;;;;4914553;29;19915;-78
2023/11/02 02:03:51;;;;;;;;;;;15.80;99.90;;;;;;4902336;29;19912;-75
2023/11/02 02:06:36;;;;;;;;;;;15.90;99.90;;;;;;4883579;29;19909;-75
2023/11/02 02:09:17;;;;;;;;;;;15.90;99.90;;;;;;4917566;29;19910;-75
2023/11/02 02:11:50;;;;;;;;;;;15.80;99.90;;;;;;4895852;29;20280;-76
2023/11/02 02:14:26;;;;;;;;;;;15.70;99.90;;;;;;4898672;29;19915;-75
2023/11/02 02:16:54;;;;;;;;;;;15.60;99.90;;;;;;4882326;29;19918;-74
2023/11/02 02:19:30;;;;;;;;;;;15.60;99.90;;;;;;4927200;29;20424;-75
2023/11/02 02:21:59;;;;;;;;;;;15.70;99.90;;;;;;4912583;29;19919;-75
2023/11/02 02:24:37;;;;;;;;;;;15.70;99.90;;;;;;4903796;29;19915;-76
2023/11/02 02:27:11;;;;;;;;;;;15.80;99.90;;;;;;4919967;29;20279;-75
2023/11/02 02:29:55;;;;;;;;;;;15.80;99.90;;;;;;4900314;29;19923;-75
2023/11/02 02:32:30;;;;;;;;;;;15.70;99.90;;;;;;4921686;29;19937;-76
2023/11/02 02:35:34;;;;;;;;;;;15.60;99.90;;;;;;4919785;29;19911;-74
2023/11/02 02:38:16;;;;;;;;;;;15.50;99.90;;;;;;4858912;29;19923;-76
2023/11/02 02:40:50;;;;;;;;;;;15.60;99.90;;;;;;4864329;29;19954;-74
2023/11/02 02:43:17;;;;;;;;;;;15.60;99.90;;;;;;4899369;29;19918;-75
2023/11/02 02:45:43;;;;;;;;;;;15.60;99.90;;;;;;4900124;29;19994;-76
2023/11/02 02:48:09;;;;;;;;;;;15.70;99.90;;;;;;4931431;29;19915;-75
2023/11/02 02:50:37;;;;;;;;;;;15.60;99.90;;;;;;4921115;29;19915;-76
2023/11/02 02:53:07;;;;;;;;;;;15.70;99.90;;;;;;4907305;29;19915;-75
2023/11/02 02:55:34;;;;;;;;;;;15.70;99.90;;;;;;4891221;29;19915;-75
2023/11/02 02:58:02;;;;;;;;;;;15.70;99.90;;;;;;4902015;29;20002;-76
2023/11/02 03:00:28;;;;;;;;;;;15.60;99.90;;;;;;4909047;29;19910;-76
2023/11/02 03:02:54;;;;;;;;;;;15.60;99.90;;;;;;4913597;29;20307;-76
2023/11/02 03:05:20;;;;;;;;;;;15.60;99.90;;;;;;4900940;29;19907;-76
2023/11/02 03:07:50;;;;;;;;;;;15.50;99.90;;;;;;4901714;29;19911;-75
2023/11/02 03:10:18;;;;;;;;;;;15.40;99.90;;;;;;4906261;29;19959;-75
2023/11/02 03:12:46;;;;;;;;;;;15.30;99.90;;;;;;4907342;29;19919;-74
2023/11/02 03:15:13;;;;;;;;;;;15.40;99.90;;;;;;4901670;29;19962;-76
2023/11/02 03:17:41;;;;;;;;;;;15.40;99.90;;;;;;4913977;29;19910;-76
2023/11/02 03:20:08;;;;;;;;;;;15.30;99.90;;;;;;4928415;29;19911;-75
2023/11/02 03:22:34;;;;;;;;;;;15.20;99.90;;;;;;4922650;29;19919;-76
2023/11/02 03:25:05;;;;;;;;;;;15.10;99.90;;;;;;4894963;29;19900;-75
2023/11/02 03:27:46;;;;;;;;;;;15.10;99.90;;;;;;4894555;29;19943;-76
2023/11/02 03:30:17;;;;;;;;;;;15.00;99.90;;;;;;4903708;29;19926;-77
2023/11/02 03:32:50;;;;;;;;;;;15.10;99.90;;;;;;4926257;29;19895;-75
2023/11/02 03:35:18;;;;;;;;;;;15.10;99.90;;;;;;4920119;29;20298;-75
2023/11/02 03:37:57;;;;;;;;;;;15.20;99.90;;;;;;4902940;29;19911;-75
2023/11/02 03:40:32;;;;;;;;;;;15.10;99.90;;;;;;4912495;29;20014;-76
2023/11/02 03:43:00;;;;;;;;;;;14.30;99.90;;;;;;4919550;29;20346;-78
2023/11/02 03:45:41;;;;;;;;;;;13.40;99.90;;;;;;4919660;29;19911;-76
2023/11/02 03:48:22;;;;;;;;;;;13.00;99.90;;;;;;4904670;29;20413;-75
2023/11/02 03:50:59;;;;;;;;;;;12.80;99.90;;;;;;4920158;29;19919;-76
2023/11/02 03:53:36;;;;;;;;;;;12.80;99.90;;;;;;4907060;29;19908;-75
2023/11/02 03:56:02;;;;;;;;;;;12.90;99.90;;;;;;4885195;29;20013;-76
2023/11/02 03:58:27;;;;;;;;;;;13.10;99.90;;;;;;4913142;29;20491;-75
2023/11/02 04:01:04;;;;;;;;;;;13.30;99.90;;;;;;4926812;29;19919;-75
2023/11/02 04:03:30;;;;;;;;;;;13.50;99.90;;;;;;4923192;29;19915;-76
2023/11/02 04:06:01;;;;;;;;;;;13.60;99.90;;;;;;4900967;29;19907;-77
2023/11/02 04:08:30;;;;;;;;;;;13.70;99.90;;;;;;4883678;29;19912;-76
2023/11/02 04:11:06;;;;;;;;;;;13.70;99.90;;;;;;4902120;29;19928;-75
2023/11/02 04:13:38;;;;;;;;;;;13.80;99.90;;;;;;4885330;29;19916;-76
2023/11/02 04:16:04;;;;;;;;;;;13.80;99.90;;;;;;4900438;29;20354;-76
2023/11/02 04:18:30;;;;;;;;;;;13.90;99.90;;;;;;4924541;29;19925;-76
2023/11/02 04:20:55;;;;;;;;;;;14.00;99.90;;;;;;4929991;29;20278;-75
2023/11/02 04:23:24;;;;;;;;;;;14.00;99.90;;;;;;4899360;29;19966;-75
2023/11/02 04:25:52;;;;;;;;;;;14.10;99.90;;;;;;4903415;29;19938;-75
2023/11/02 04:28:18;;;;;;;;;;;14.10;99.90;;;;;;4910565;29;20058;-76
2023/11/02 04:30:44;;;;;;;;;;;14.20;99.90;;;;;;4902420;29;20390;-75
2023/11/02 04:33:09;;;;;;;;;;;14.20;99.90;;;;;;4894778;29;19960;-76
2023/11/02 04:35:36;;;;;;;;;;;14.40;99.90;;;;;;4900406;29;19914;-76
2023/11/02 04:38:02;;;;;;;;;;;14.50;99.90;;;;;;4907214;29;20267;-77
2023/11/02 04:40:28;;;;;;;;;;;14.50;99.90;;;;;;4930307;29;19915;-75
2023/11/02 04:42:54;;;;;;;;;;;14.60;99.90;;;;;;4894600;29;19915;-75
2023/11/02 04:45:19;;;;;;;;;;;14.60;99.90;;;;;;4901678;29;19911;-76
2023/11/02 04:47:45;;;;;;;;;;;14.70;99.90;;;;;;4914140;29;19918;-76
2023/11/02 04:50:10;;;;;;;;;;;14.70;99.90;;;;;;4906572;29;20336;-76
2023/11/02 04:52:36;;;;;;;;;;;14.60;99.90;;;;;;4900178;29;19911;-76
2023/11/02 04:55:02;;;;;;;;;;;14.50;99.90;;;;;;4903627;29;19912;-75
2023/11/02 04:57:27;;;;;;;;;;;14.50;99.90;;;;;;4901473;29;20427;-77
2023/11/02 04:59:53;;;;;;;;;;;14.50;99.90;;;;;;4917300;29;19918;-75
2023/11/02 05:02:18;;;;;;;;;;;14.50;99.90;;;;;;4924622;29;19957;-75
2023/11/02 05:04:44;;;;;;;;;;;14.50;99.90;;;;;;4884179;29;20287;-76
2023/11/02 05:07:09;;;;;;;;;;;14.50;99.90;;;;;;4882621;29;19908;-76
2023/11/02 05:09:35;;;;;;;;;;;14.50;99.90;;;;;;4900666;29;19910;-76
2023/11/02 05:12:00;;;;;;;;;;;14.00;99.90;;;;;;4916885;29;19918;-75
2023/11/02 05:14:26;;;;;;;;;;;13.40;99.90;;;;;;4897465;29;19915;-76
2023/11/02 05:16:51;;;;;;;;;;;13.20;99.90;;;;;;4904622;29;19899;-75
2023/11/02 05:19:17;;;;;;;;;;;13.20;99.90;;;;;;4908200;29;19928;-76
2023/11/02 05:21:42;;;;;;;;;;;13.30;99.90;;;;;;4928812;29;19939;-76
2023/11/02 05:24:10;;;;;;;;;;;13.40;99.90;;;;;;4918866;29;20281;-76
2023/11/02 05:26:36;;;;;;;;;;;13.60;99.90;;;;;;4924407;29;19967;-76
2023/11/02 05:29:02;;;;;;;;;;;13.70;99.90;;;;;;4895903;29;19921;-76
2023/11/02 05:31:27;;;;;;;;;;;13.80;99.90;;;;;;4896960;29;19915;-76
2023/11/02 05:33:55;;;;;;;;;;;13.90;99.90;;;;;;4904628;29;20481;-76
2023/11/02 05:36:25;;;;;;;;;;;13.80;99.90;;;;;;4895154;29;19994;-75
2023/11/02 05:38:53;;;;;;;;;;;13.80;99.90;;;;;;4905126;29;19918;-75
2023/11/02 05:41:20;;;;;;;;;;;13.90;99.90;;;;;;4915461;29;19918;-76
2023/11/02 05:43:45;;;;;;;;;;;14.00;99.90;;;;;;4915787;29;19919;-78
2023/11/02 05:46:11;;;;;;;;;;;14.10;99.90;;;;;;4923176;29;19958;-77
2023/11/02 05:48:36;;;;;;;;;;;14.10;99.90;;;;;;4925357;29;19911;-76
2023/11/02 05:51:02;;;;;;;;;;;14.00;99.90;;;;;;4912322;29;19915;-75
2023/11/02 05:53:28;;;;;;;;;;;13.70;99.90;;;;;;4913876;29;19933;-75
2023/11/02 05:55:53;;;;;;;;;;;13.50;99.90;;;;;;4926628;29;19926;-77
2023/11/02 05:58:19;;;;;;;;;;;13.60;99.90;;;;;;4913624;29;19961;-77
2023/11/02 06:00:45;;;;;;;;;;;13.70;99.90;;;;;;4919539;29;19915;-75
2023/11/02 06:03:10;;;;;;;;;;;13.70;99.90;;;;;;4938516;29;19911;-76
2023/11/02 06:05:36;;;;;;;;;;;13.70;99.90;;;;;;4915379;29;20434;-75
2023/11/02 06:08:02;;;;;;;;;;;13.70;99.90;;;;;;4932495;29;20253;-75
2023/11/02 06:10:27;;;;;;;;;;;13.80;99.90;;;;;;4943573;29;20389;-75
2023/11/02 06:12:53;;;;;;;;;;;13.90;99.90;;;;;;4898396;29;19998;-76
2023/11/02 06:15:19;;;;;;;;;;;13.90;99.90;;;;;;4918344;29;19970;-77
2023/11/02 06:17:45;;;;;;;;;;;13.90;99.90;;;;;;4939024;29;19926;-76
2023/11/02 06:20:10;;;;;;;;;;;13.90;99.90;;;;;;4927800;29;20287;-76
2023/11/02 06:22:36;;;;;;;;;;;13.90;99.90;;;;;;4915687;29;19914;-76
2023/11/02 06:25:02;;;;;;;;;;;13.80;99.90;;;;;;4918007;29;20007;-75
2023/11/02 06:27:27;;;;;;;;;;;13.90;99.90;;;;;;4917127;29;20275;-77
2023/11/02 06:29:54;;;;;;;;;;;14.00;99.90;;;;;;4919059;29;19934;-76
2023/11/02 06:32:20;;;;;;;;;;;14.00;99.90;;;;;;4923965;29;19899;-76
2023/11/02 06:34:45;;;;;;;;;;;14.00;99.90;;;;;;4938527;29;19972;-75
2023/11/02 06:37:13;;;;;;;;;;;14.10;99.90;;;;;;4903273;29;19911;-74
2023/11/02 06:39:38;;;;;;;;;;;14.20;99.90;;;;;;4913425;29;19923;-75
2023/11/02 06:42:04;;;;;;;;;;;14.20;99.90;;;;;;4913120;29;19931;-76
2023/11/02 06:44:30;;;;;;;;;;;14.20;99.90;;;;;;4919378;29;19965;-76
2023/11/02 06:46:55;;;;;;;;;;;14.30;99.90;;;;;;4891292;29;19908;-76
2023/11/02 06:49:21;;;;;;;;;;;14.30;99.90;;;;;;4898157;29;19927;-78
2023/11/02 06:51:47;;;;;;;;;;;14.30;99.90;;;;;;4886765;29;19921;-76
2023/11/02 06:54:12;;;;;;;;;;;14.30;99.90;;;;;;4880976;29;20446;-76
2023/11/02 06:56:38;;;;;;;;;;;14.40;99.90;;;;;;4918307;29;20347;-75
2023/11/02 06:59:04;;;;;;;;;;;14.30;99.90;;;;;;4933191;29;19919;-76
2023/11/02 07:01:29;;;;;;;;;;;14.30;99.90;;;;;;4899596;29;20387;-76
2023/11/02 07:03:55;;;;;;;;;;;14.20;99.90;;;;;;4913375;29;19911;-75
2023/11/02 07:06:21;;;;;;;;;;;14.30;99.90;;;;;;4930282;29;19931;-75
2023/11/02 07:08:47;;;;;;;;;;;14.30;99.90;;;;;;4898023;29;19971;-76
2023/11/02 07:11:12;;;;;;;;;;;14.50;99.90;;;;;;4902943;29;19926;-77
2023/11/02 07:13:38;;;;;;;;;;;14.50;99.90;;;;;;4908872;29;19911;-75
2023/11/02 07:16:04;;;;;;;;;;;14.60;99.90;;;;;;4897660;29;20375;-76
2023/11/02 07:18:30;;;;;;;;;;;14.60;99.90;;;;;;4896438;29;20402;-74
2023/11/02 07:20:56;;;;;;;;;;;14.60;99.90;;;;;;4893415;29;20010;-75
2023/11/02 07:23:21;;;;;;;;;;;14.60;99.90;;;;;;4893801;29;20405;-76
2023/11/02 07:25:47;;;;;;;;;;;14.60;99.90;;;;;;4912571;29;19937;-76
2023/11/02 07:28:12;;;;;;;;;;;14.50;99.90;;;;;;4897700;29;19998;-76
2023/11/02 07:30:38;;;;;;;;;;;14.50;99.90;;;;;;4896155;29;19916;-77
2023/11/02 07:33:04;;;;;;;;;;;14.50;99.90;;;;;;4911756;29;19927;-76
2023/11/02 07:35:29;;;;;;;;;;;14.50;99.90;;;;;;4919649;29;19911;-74
2023/11/02 07:37:55;;;;;;;;;;;14.60;99.90;;;;;;4881901;29;20038;-77
2023/11/02 07:40:20;;;;;;;;;;;14.60;99.90;;;;;;4882239;29;19950;-81
2023/11/02 07:42:46;;;;;;;;;;;14.60;99.90;;;;;;4894071;29;19951;-75
2023/11/02 07:45:12;;;;;;;;;;;14.60;99.90;;;;;;4867367;29;20303;-76
2023/11/02 07:47:37;;;;;;;;;;;14.60;99.90;;;;;;4896592;29;19977;-75
2023/11/02 07:50:06;;;;;;;;;;;14.30;99.90;;;;;;4909623;29;19970;-80
2023/11/02 07:52:32;;;;;;;;;;;14.10;99.90;;;;;;4900677;29;19998;-77
2023/11/02 07:54:57;;;;;;;;;;;14.10;99.90;;;;;;4907805;29;20002;-77
2023/11/02 07:57:23;;;;;;;;;;;14.10;99.90;;;;;;4901729;29;19914;-78
2023/11/02 07:59:50;;;;;;;;;;;13.60;99.90;;;;;;4906574;29;19971;-82
2023/11/02 08:02:16;;;;;;;;;;;11.70;99.90;;;;;;4899670;29;19915;-81
2023/11/02 08:04:44;;;;;;;;;;;11.50;99.90;;;;;;4887435;29;19912;-78
2023/11/02 08:07:10;;;;;;;;;;;11.80;99.90;;;;;;4899938;29;19911;-82
2023/11/02 08:09:37;;;;;;;;;;;12.00;99.90;;;;;;4883255;29;20352;-79
2023/11/02 08:12:08;;;;;;;;;;;12.50;99.90;;;;;;4894152;29;19960;-77
2023/11/02 08:14:37;;;;;;;;;;;12.80;99.90;;;;;;4897379;29;20003;-81
2023/11/02 08:17:03;;;;;;;;;;;13.00;99.90;;;;;;4864630;29;20020;-77
2023/11/02 08:19:29;;;;;;;;;;;13.30;99.90;;;;;;4903523;29;19927;-76
2023/11/02 08:21:55;;;;;;;;;;;13.40;99.90;;;;;;4917278;29;19917;-80
2023/11/02 08:24:21;;;;;;;;;;;13.60;99.90;;;;;;4923160;29;19903;-77
2023/11/02 08:26:46;;;;;;;;;;;13.70;99.90;;;;;;4907520;29;19922;-82
2023/11/02 08:29:12;;;;;;;;;;;13.80;99.90;;;;;;4882453;29;19907;-81
2023/11/02 08:31:37;;;;;;;;;;;13.90;99.90;;;;;;4905011;29;20393;-82
2023/11/02 08:34:04;;;;;;;;;;;14.00;99.90;;;;;;4916784;29;20002;-79
2023/11/02 08:36:34;;;;;;;;;;;14.00;99.90;;;;;;4911222;29;20026;-81
2023/11/02 08:38:59;;;;;;;;;;;14.10;99.90;;;;;;4906904;29;20272;-80
2023/11/02 08:41:26;;;;;;;;;;;14.20;99.90;;;;;;4882840;29;19963;-81
2023/11/02 08:43:52;;;;;;;;;;;14.20;99.90;;;;;;4898601;29;19967;-76
2023/11/02 08:46:18;;;;;;;;;;;14.20;99.90;;;;;;4928113;29;19918;-77
2023/11/02 08:48:47;;;;;;;;;;;14.10;99.90;;;;;;4916095;29;20485;-75
2023/11/02 08:51:17;;;;;;;;;;;14.10;99.90;;;;;;4911338;29;20014;-81
2023/11/02 08:53:43;;;;;;;;;;;14.10;99.90;;;;;;4906055;29;19914;-81
2023/11/02 08:56:09;;;;;;;;;;;14.10;99.90;;;;;;4920948;29;19942;-77
2023/11/02 08:58:44;;;;;;;;;;;14.10;99.90;;;;;;4925784;28;19922;-75
2023/11/02 09:01:11;;;;;;;;;;;14.10;99.90;;;;;;4916521;29;19919;-75
2023/11/02 09:03:37;;;;;;;;;;;14.00;99.90;;;;;;4904999;29;19915;-80
2023/11/02 09:06:04;;;;;;;;;;;14.00;99.90;;;;;;4913649;29;20013;-76
2023/11/02 09:08:30;;;;;;;;;;;14.00;99.90;;;;;;4911920;29;19915;-79
2023/11/02 09:10:55;;;;;;;;;;;14.00;99.90;;;;;;4892961;29;19914;-78
2023/11/02 09:13:21;;;;;;;;;;;14.00;99.90;;;;;;4917017;29;19921;-81
2023/11/02 09:15:46;;;;;;;;;;;14.00;99.90;;;;;;4915360;29;19918;-82
2023/11/02 09:18:12;;;;;;;;;;;13.90;99.90;;;;;;4902270;29;20010;-77
2023/11/02 09:20:37;;;;;;;;;;;13.50;99.90;;;;;;4896493;29;19908;-78
2023/11/02 09:23:06;;;;;;;;;;;12.60;99.90;;;;;;4879280;29;19923;-74
2023/11/02 09:25:34;;;;;;;;;;;12.00;99.90;;;;;;4892274;29;19918;-78
2023/11/02 09:27:59;;;;;;;;;;;11.90;99.90;;;;;;4883927;29;19999;-76
2023/11/02 09:30:25;;;;;;;;;;;11.90;99.90;;;;;;4890974;29;19984;-74
2023/11/02 09:32:51;;;;;;;;;;;12.10;99.90;;;;;;4906489;29;19911;-74
2023/11/02 09:35:17;;;;;;;;;;;12.30;99.90;;;;;;4916319;29;19903;-75
2023/11/02 09:37:42;;;;;;;;;;;12.50;99.90;;;;;;4882908;29;20455;-78
2023/11/02 09:40:09;;;;;;;;;;;12.80;99.90;;;;;;4892683;29;19962;-74
2023/11/02 09:42:34;;;;;;;;;;;13.00;99.90;;;;;;4893866;29;19916;-73
2023/11/02 09:45:00;;;;;;;;;;;13.20;99.90;;;;;;4892081;29;19911;-78
2023/11/02 09:47:26;;;;;;;;;;;13.40;99.90;;;;;;4886301;29;19911;-74
2023/11/02 09:49:51;;;;;;;;;;;13.50;99.90;;;;;;4893816;29;19915;-78
2023/11/02 09:52:17;;;;;;;;;;;13.60;99.90;;;;;;4893166;29;19979;-77
2023/11/02 09:54:43;;;;;;;;;;;13.60;99.90;;;;;;4891438;29;20006;-78
2023/11/02 09:57:09;;;;;;;;;;;13.50;99.90;;;;;;4895759;29;20303;-74
2023/11/02 09:59:39;;;;;;;;;;;13.50;99.90;;;;;;4891151;29;19943;-78
2023/11/02 10:02:05;;;;;;;;;;;13.50;99.90;;;;;;4890159;29;20006;-74
2023/11/02 10:04:31;;;;;;;;;;;13.50;99.90;;;;;;4888775;29;19923;-74
2023/11/02 10:06:56;;;;;;;;;;;13.50;99.90;;;;;;4903594;29;19900;-80
2023/11/02 10:09:23;;;;;;;;;;;13.50;99.90;;;;;;4899505;29;19923;-77
2023/11/02 10:11:48;;;;;;;;;;;13.50;99.90;;;;;;4896666;29;19980;-81
2023/11/02 10:14:14;;;;;;;;;;;13.40;99.90;;;;;;4889452;29;19912;-81
2023/11/02 10:16:40;;;;;;;;;;;13.40;99.90;;;;;;4883440;29;20337;-76
2023/11/02 10:19:07;;;;;;;;;;;13.40;99.90;;;;;;4915315;29;19929;-77
2023/11/02 10:21:33;;;;;;;;;;;13.50;99.90;;;;;;4916348;29;20005;-80
2023/11/02 10:24:00;;;;;;;;;;;13.50;99.90;;;;;;4912308;29;19963;-77
2023/11/02 10:26:28;;;;;;;;;;;13.60;99.90;;;;;;4900895;29;19940;-77
2023/11/02 10:28:55;;;;;;;;;;;13.60;99.90;;;;;;4910565;29;20470;-77
2023/11/02 10:31:27;;;;;;;;;;;13.60;99.90;;;;;;4898664;29;20018;-81
2023/11/02 10:33:52;;;;;;;;;;;13.70;99.90;;;;;;4921486;29;20327;-81
2023/11/02 10:36:19;;;;;;;;;;;14.00;99.90;;;;;;4913660;29;19982;-80
2023/11/02 10:38:45;;;;;;;;;;;14.10;99.90;;;;;;4907373;29;19926;-81
2023/11/02 10:41:15;;;;;;;;;;;14.30;99.90;;;;;;4915431;29;19918;-76
2023/11/02 10:43:41;;;;;;;;;;;14.50;99.90;;;;;;4910063;29;20001;-81
2023/11/02 10:46:09;;;;;;;;;;;14.60;99.90;;;;;;4905447;29;20425;-81
2023/11/02 10:48:36;;;;;;;;;;;14.60;99.90;;;;;;4904405;29;19962;-81
2023/11/02 10:51:02;;;;;;;;;;;14.60;99.90;;;;;;4915833;29;19918;-78
2023/11/02 10:53:34;;;;;;;;;;;14.50;99.90;;;;;;4918343;29;20014;-81
2023/11/02 10:56:03;;;;;;;;;;;14.50;99.90;;;;;;4903520;29;19915;-78
2023/11/02 10:58:30;;;;;;;;;;;14.60;99.90;;;;;;4900758;29;19922;-81
2023/11/02 11:00:56;;;;;;;;;;;14.80;99.90;;;;;;4891010;29;19915;-77
2023/11/02 11:03:22;;;;;;;;;;;14.90;99.90;;;;;;4917575;29;19911;-80
2023/11/02 11:05:48;;;;;;;;;;;14.70;99.90;;;;;;4917057;29;19919;-81
2023/11/02 11:08:14;;;;;;;;;;;14.50;99.90;;;;;;4904655;29;19926;-77
2023/11/02 11:10:41;;;;;;;;;;;14.50;99.90;;;;;;4913283;29;19966;-77
2023/11/02 11:13:10;;;;;;;;;;;14.50;99.90;;;;;;4926701;29;19923;-81
2023/11/02 11:15:36;;;;;;;;;;;14.70;99.90;;;;;;4904014;29;20346;-78
2023/11/02 11:18:01;;;;;;;;;;;14.80;99.90;;;;;;4917977;29;19966;-77
2023/11/02 11:20:27;;;;;;;;;;;14.80;99.90;;;;;;4914165;29;19911;-77
2023/11/02 11:22:54;;;;;;;;;;;14.70;99.90;;;;;;4911656;29;19911;-81
2023/11/02 11:25:19;;;;;;;;;;;15.00;99.90;;;;;;4930453;29;19919;-78
2023/11/02 11:27:46;;;;;;;;;;;14.80;99.90;;;;;;4910971;29;19915;-76
2023/11/02 11:30:20;;;;;;;;;;;14.70;99.90;;;;;;4918721;29;19930;-78
2023/11/02 11:32:47;;;;;;;;;;;14.60;99.90;;;;;;4910720;29;20306;-82
2023/11/02 11:35:14;;;;;;;;;;;14.70;99.90;;;;;;4908011;29;19903;-80
2023/11/02 11:37:57;;;;;;;;;;;14.60;99.90;;;;;;4914244;29;19985;-83
2023/11/02 11:40:27;;;;;;;;;;;14.60;99.90;;;;;;4883513;29;20371;-82
2023/11/02 11:42:54;;;;;;;;;;;14.20;99.90;;;;;;4909123;29;19966;-82
2023/11/02 11:45:26;;;;;;;;;;;13.30;99.90;;;;;;4909583;29;19911;-84
2023/11/02 11:47:53;;;;;;;;;;;12.80;99.90;;;;;;4910911;29;19941;-83
2023/11/02 11:50:51;;;;;;;;;;;12.40;99.90;;;;;;4919133;29;20227;-77
2023/11/02 11:53:23;;;;;;;;;;;12.60;99.90;;;;;;4925011;29;20451;-82
2023/11/02 11:55:52;;;;;;;;;;;13.00;99.90;;;;;;4906984;29;19922;-83
2023/11/02 11:58:38;;;;;;;;;;;13.30;99.90;;;;;;4906457;29;20035;-82
2023/11/02 12:01:03;;;;;;;;;;;13.60;99.90;;;;;;4908660;29;19935;-77
2023/11/02 12:03:35;;;;;;;;;;;13.90;99.90;;;;;;4896802;29;20005;-77
2023/11/02 12:06:04;;;;;;;;;;;14.30;99.90;;;;;;4918875;29;19998;-76
2023/11/02 12:08:31;;;;;;;;;;;15.00;99.90;;;;;;4911690;29;19943;-79
2023/11/02 12:10:57;;;;;;;;;;;15.10;99.90;;;;;;4923954;29;20293;-77
2023/11/02 12:13:24;;;;;;;;;;;15.20;99.90;;;;;;4896704;29;19970;-79
2023/11/02 12:15:51;;;;;;;;;;;14.90;99.90;;;;;;4906279;29;19914;-81
2023/11/02 12:18:18;;;;;;;;;;;14.80;99.90;;;;;;4915128;29;19914;-82
2023/11/02 12:20:44;;;;;;;;;;;15.20;99.90;;;;;;4926181;29;20393;-80
2023/11/02 12:23:12;;;;;;;;;;;15.10;99.90;;;;;;4918540;29;19910;-79
2023/11/02 12:25:38;;;;;;;;;;;14.90;99.90;;;;;;4900307;29;20355;-76
2023/11/02 12:28:06;;;;;;;;;;;14.90;99.90;;;;;;4893638;29;20063;-76
2023/11/02 12:30:32;;;;;;;;;;;15.30;99.90;;;;;;4918123;29;20143;-76
2023/11/02 12:32:58;;;;;;;;;;;15.50;99.90;;;;;;4914715;29;20010;-76
2023/11/02 12:35:24;;;;;;;;;;;15.00;99.90;;;;;;4901109;29;20138;-81
2023/11/02 12:38:00;;;;;;;;;;;14.70;99.90;;;;;;4888286;29;19915;-76
2023/11/02 12:40:26;;;;;;;;;;;14.60;99.90;;;;;;4918156;29;19921;-82
2023/11/02 12:42:53;;;;;;;;;;;14.70;99.90;;;;;;4922860;29;19943;-77
2023/11/02 12:45:24;;;;;;;;;;;14.70;99.90;;;;;;4908570;29;19933;-82
2023/11/02 12:47:53;;;;;;;;;;;14.70;99.90;;;;;;4913880;29;20314;-82
2023/11/02 12:50:26;;;;;;;;;;;14.80;99.90;;;;;;4911261;29;19919;-78
2023/11/02 12:52:52;;;;;;;;;;;14.70;99.90;;;;;;4924754;29;19915;-80
2023/11/02 12:55:18;;;;;;;;;;;14.80;99.90;;;;;;4883804;29;19918;-78
2023/11/02 12:57:44;;;;;;;;;;;14.80;99.90;;;;;;4900561;29;19934;-80
2023/11/02 13:00:14;;;;;;;;;;;14.70;99.90;;;;;;4900088;29;19907;-80
2023/11/02 13:02:39;;;;;;;;;;;14.60;99.90;;;;;;4925404;29;20017;-78
2023/11/02 13:05:06;;;;;;;;;;;14.60;99.90;;;;;;4927830;29;20005;-80
2023/11/02 13:07:33;;;;;;;;;;;14.60;99.90;;;;;;4920502;29;20013;-78
2023/11/02 13:09:59;;;;;;;;;;;14.60;99.90;;;;;;4914987;29;19923;-80
2023/11/02 13:12:25;;;;;;;;;;;14.50;99.90;;;;;;4917438;29;19934;-78
2023/11/02 13:14:50;;;;;;;;;;;14.40;99.90;;;;;;4919109;29;19911;-82
2023/11/02 13:17:16;;;;;;;;;;;14.50;99.90;;;;;;4916085;29;19911;-81
2023/11/02 13:19:45;;;;;;;;;;;14.40;99.90;;;;;;4900317;29;20296;-79
2023/11/02 13:22:11;;;;;;;;;;;14.50;99.90;;;;;;4898938;29;19911;-80
2023/11/02 13:24:36;;;;;;;;;;;14.20;99.90;;;;;;4890033;29;19912;-81
2023/11/02 13:27:04;;;;;;;;;;;13.50;99.90;;;;;;4863063;29;20002;-79
2023/11/02 13:29:30;;;;;;;;;;;13.40;99.90;;;;;;4898649;29;20172;-78
2023/11/02 13:31:55;;;;;;;;;;;13.50;99.90;;;;;;4903109;29;20391;-81
2023/11/02 13:34:21;;;;;;;;;;;13.70;99.90;;;;;;4895845;29;19958;-80
2023/11/02 13:36:46;;;;;;;;;;;13.90;99.90;;;;;;4900555;29;19907;-81
2023/11/02 13:39:12;;;;;;;;;;;14.00;99.90;;;;;;4901390;29;20001;-77
2023/11/02 13:41:37;;;;;;;;;;;14.00;99.90;;;;;;4881713;29;19915;-77
2023/11/02 13:44:03;;;;;;;;;;;14.10;99.90;;;;;;4897292;29;20372;-79
2023/11/02 13:46:29;;;;;;;;;;;14.10;99.90;;;;;;4907179;29;19912;-81
2023/11/02 13:48:56;;;;;;;;;;;14.00;99.90;;;;;;4880443;29;20303;-81
2023/11/02 13:51:22;;;;;;;;;;;14.00;99.90;;;;;;4897992;29;20038;-81
2023/11/02 13:53:48;;;;;;;;;;;14.00;99.90;;;;;;4882197;29;19935;-81
2023/11/02 13:56:13;;;;;;;;;;;14.00;99.90;;;;;;4897574;29;19938;-81
2023/11/02 13:58:39;;;;;;;;;;;13.90;99.90;;;;;;4891782;29;19915;-82
2023/11/02 14:01:05;;;;;;;;;;;13.90;99.90;;;;;;4896588;29;19915;-81
2023/11/02 14:03:31;;;;;;;;;;;13.90;99.90;;;;;;4892164;29;19926;-81
2023/11/02 14:05:56;;;;;;;;;;;13.90;99.90;;;;;;4862384;29;20375;-80
2023/11/02 14:08:22;;;;;;;;;;;13.90;99.90;;;;;;4879770;29;19971;-79
2023/11/02 14:10:47;;;;;;;;;;;13.90;99.90;;;;;;4888378;29;19923;-79
2023/11/02 14:13:13;;;;;;;;;;;13.90;99.90;;;;;;4896678;29;19922;-80
2023/11/02 14:15:41;;;;;;;;;;;13.80;99.90;;;;;;4896715;29;19922;-81
2023/11/02 14:18:07;;;;;;;;;;;13.80;99.90;;;;;;4893963;29;19916;-81
2023/11/02 14:20:33;;;;;;;;;;;13.80;99.90;;;;;;4880098;29;19920;-77